Pacific Reliance — WDI7757 — position and weather

sailwx.info

Track history (hours):
 
Tides and Currents Weather Stations Pressure Air Temp Water Temp Dewpoint Dewpoint Depression Visibility Wind Speed Wind Dir Waves Ship Positions

Pacific Reliance

Owner: Intrepid Ship Management, INC, jacksonville, FL. More information available from US FCC via Universal Licensing System and Coast Guard Vessel Documentation Center.

Last reported at 2018-Feb-15 16:57 UTC. Time now 2018-Feb-25 03:52 UTC.
Position N 38°58' W 075°12'.
Warning: this ship's position is 9 days out of date.

Date/timePositionNaut miles runAvg speedWind from/ knotsBaromVisibWave heightAir tempDewpointWater temp
2018-Feb-15 16:57N 38°58' W 075°12'0 0.1
2018-Feb-15 15:12N 38°58' W 075°12'0 0.4
2018-Feb-15 15:00N 38°58' W 075°12'0 0.1
2018-Feb-15 14:00N 38°58' W 075°12'0 0.0
2018-Feb-15 13:30N 38°58' W 075°12'0 0.0
2018-Feb-15 12:57N 38°58' W 075°12'0 0.0
2018-Feb-15 12:27N 38°58' W 075°12'0 0.0
2018-Feb-15 12:00N 38°58' W 075°12'0 0.0
2018-Feb-15 11:30N 38°58' W 075°12'0 0.0
2018-Feb-15 10:57N 38°58' W 075°12'0 0.0
2018-Feb-15 10:30N 38°58' W 075°12'0 0.1
2018-Feb-15 10:00N 38°58' W 075°12'0 0.0
2018-Feb-15 09:27N 38°58' W 075°12'0 0.4
2018-Feb-15 09:00N 38°58' W 075°12'0 0.1
2018-Feb-15 08:30N 38°58' W 075°12'0 0.0
2018-Feb-15 07:57N 38°58' W 075°12'0 0.0
2018-Feb-15 07:27N 38°58' W 075°12'0 0.0
2018-Feb-15 06:57N 38°58' W 075°12'0 0.0
2018-Feb-15 06:15N 38°58' W 075°12'0 0.0
2018-Feb-15 05:57N 38°58' W 075°12'0 0.0
2018-Feb-15 05:24N 38°58' W 075°12'0 0.0
2018-Feb-15 05:00N 38°58' W 075°12'0 0.0
2018-Feb-15 04:30N 38°58' W 075°12'0 0.0
2018-Feb-15 03:54N 38°58' W 075°12'0 0.1
2018-Feb-15 03:30N 38°58' W 075°12'0 0.3
2018-Feb-15 02:54N 38°58' W 075°12'0 0.1
2018-Feb-15 01:45N 38°58' W 075°12'0 0.0
2018-Feb-15 01:30N 38°58' W 075°12'0 0.0
2018-Feb-15 01:00N 38°58' W 075°12'0 0.0
2018-Feb-15 00:30N 38°58' W 075°12'0 0.0
2018-Feb-14 23:57N 38°58' W 075°12'0 0.0
2018-Feb-14 23:27N 38°58' W 075°12'0 0.1
2018-Feb-14 23:00N 38°58' W 075°12'711.1
2018-Feb-14 22:22N 38°53' W 075°06'7 9.8
2018-Feb-14 21:37N 38°47' W 074°60'2 9.7
2018-Feb-14 21:25N 38°47' W 074°57'4 9.6
2018-Feb-14 20:59N 38°48' W 074°52'56 9.8
2018-Feb-14 15:16N 39°29' W 074°02'411.5
2018-Feb-14 14:56N 39°32' W 073°60'611.5
2018-Feb-14 14:27N 39°37' W 073°56'711.7
2018-Feb-14 13:49N 39°43' W 073°51'511.0
2018-Feb-14 13:19N 39°48' W 073°50'3010.9
2018-Feb-14 10:34N 40°19' W 073°49'1 9.8
2018-Feb-14 10:30N 40°19' W 073°49'5 9.6
2018-Feb-14 10:00N 40°24' W 073°49'5 9.3
2018-Feb-14 09:31N 40°28' W 073°53'5 9.4
2018-Feb-14 09:00N 40°30' W 073°58'5 9.6
2018-Feb-14 08:30N 40°34' W 074°02'510.6
2018-Feb-14 08:01N 40°39' W 074°05'1 2.2
2018-Feb-14 07:30N 40°39' W 074°06'0 0.0
2018-Feb-14 06:58N 40°39' W 074°06'0 0.0
2018-Feb-14 06:28N 40°39' W 074°06'0 0.0
2018-Feb-14 05:58N 40°39' W 074°06'0 0.0
2018-Feb-14 05:28N 40°39' W 074°06'0 0.0
2018-Feb-14 04:58N 40°39' W 074°06'0 0.0
2018-Feb-14 04:25N 40°39' W 074°06'0 0.0
2018-Feb-14 03:55N 40°39' W 074°06'0 0.0
2018-Feb-14 03:28N 40°39' W 074°06'0 0.0
2018-Feb-14 02:58N 40°39' W 074°06'0 0.0
2018-Feb-14 02:28N 40°39' W 074°06'0 0.0
2018-Feb-14 01:58N 40°39' W 074°06'0 0.0
2018-Feb-14 01:28N 40°39' W 074°06'0 0.0
2018-Feb-14 00:58N 40°39' W 074°06'0 0.0
2018-Feb-14 00:28N 40°39' W 074°06'0 0.0
2018-Feb-13 23:58N 40°39' W 074°06'0 0.0
2018-Feb-13 23:28N 40°39' W 074°06'0 0.0
2018-Feb-13 22:58N 40°39' W 074°06'0 0.0
2018-Feb-13 22:28N 40°39' W 074°06'0 0.0
2018-Feb-13 21:58N 40°39' W 074°06'0 0.0
2018-Feb-13 21:28N 40°39' W 074°06'0 0.0
2018-Feb-13 20:58N 40°39' W 074°06'0 0.0
2018-Feb-13 20:28N 40°39' W 074°06'0 0.0
2018-Feb-13 19:58N 40°39' W 074°06'0 0.0
2018-Feb-13 19:28N 40°39' W 074°06'0 0.0
2018-Feb-13 18:58N 40°39' W 074°06'0 0.0
2018-Feb-13 18:28N 40°39' W 074°06'0 0.0
2018-Feb-13 17:58N 40°39' W 074°06'0 0.0
2018-Feb-13 17:28N 40°39' W 074°06'0 0.0
2018-Feb-13 16:58N 40°39' W 074°06'0 0.0
2018-Feb-13 16:28N 40°39' W 074°06'0 0.0
2018-Feb-13 15:58N 40°39' W 074°06'0 0.0
2018-Feb-13 15:28N 40°39' W 074°06'0 0.0
2018-Feb-13 14:58N 40°39' W 074°06'0 0.0
2018-Feb-13 14:28N 40°39' W 074°06'0 0.0
2018-Feb-13 13:58N 40°39' W 074°06'0 1.0
2018-Feb-13 13:30N 40°39' W 074°05'4 8.0
2018-Feb-13 13:00N 40°36' W 074°02'510.7
2018-Feb-13 12:30N 40°31' W 073°59'5 9.4
2018-Feb-13 12:00N 40°28' W 073°54'4 8.6
2018-Feb-13 11:29N 40°25' W 073°50'2 4.4
2018-Feb-13 11:00N 40°23' W 073°48'2 4.5
2018-Feb-13 10:30N 40°21' W 073°47'  
2018-Feb-10 06:53N 27°06' W 079°55'514.1
2018-Feb-10 06:30N 27°01' W 079°55'714.0
2018-Feb-10 06:00N 26°54' W 079°54'2114.0
2018-Feb-10 04:32N 26°33' W 079°54'214.3
2018-Feb-10 04:22N 26°31' W 079°54'514.5
2018-Feb-10 04:00N 26°26' W 079°54'815.0
2018-Feb-10 03:30N 26°18' W 079°55'815.0
2018-Feb-10 03:00N 26°11' W 079°56'715.0
2018-Feb-10 02:30N 26°03' W 079°57'815.0
2018-Feb-10 02:00N 25°56' W 079°57'815.1
2018-Feb-10 01:30N 25°48' W 079°57'815.1
2018-Feb-10 01:00N 25°41' W 079°57'714.9
2018-Feb-10 00:30N 25°33' W 079°57'714.9
2018-Feb-10 00:00N 25°26' W 079°59'814.8
2018-Feb-09 23:30N 25°19' W 080°02'  
2018-Feb-06 20:26N 29°21' W 094°45'3 6.6
2018-Feb-06 19:58N 29°19' W 094°48'1 2.5
2018-Feb-06 19:28N 29°19' W 094°49'0 0.0
2018-Feb-06 19:00N 29°19' W 094°49'0 0.0
2018-Feb-06 18:20N 29°19' W 094°49'0 0.0
2018-Feb-06 17:56N 29°19' W 094°49'0 0.0
2018-Feb-06 17:26N 29°19' W 094°49'5 0.3
2018-Feb-05 20:03N 29°24' W 094°49'111.0
2018-Feb-05 19:59N 29°25' W 094°49'510.7
2018-Feb-05 19:30N 29°29' W 094°52'1510.2
2018-Feb-05 18:00N 29°42' W 095°01'  
Track history (hours):
 
Tides and Currents Weather Stations Pressure Air Temp Water Temp Dewpoint Dewpoint Depression Visibility Wind Speed Wind Dir Waves Ship Positions

Pacific Reliance

Owner: Intrepid Ship Management, INC, jacksonville, FL. More information available from US FCC via Universal Licensing System and Coast Guard Vessel Documentation Center.

Last reported at 2018-Feb-15 16:57 UTC. Time now 2018-Feb-25 03:52 UTC.
Position N 38°58' W 075°12'.
Warning: this ship's position is 9 days out of date.

Date/timePositionNaut miles runAvg speedWind from/ knotsBaromVisibWave heightAir tempDewpointWater temp
2018-Feb-15 16:57N 38°58' W 075°12'0 0.1
2018-Feb-15 15:12N 38°58' W 075°12'0 0.4
2018-Feb-15 15:00N 38°58' W 075°12'0 0.1
2018-Feb-15 14:00N 38°58' W 075°12'0 0.0
2018-Feb-15 13:30N 38°58' W 075°12'0 0.0
2018-Feb-15 12:57N 38°58' W 075°12'0 0.0
2018-Feb-15 12:27N 38°58' W 075°12'0 0.0
2018-Feb-15 12:00N 38°58' W 075°12'0 0.0
2018-Feb-15 11:30N 38°58' W 075°12'0 0.0
2018-Feb-15 10:57N 38°58' W 075°12'0 0.0
2018-Feb-15 10:30N 38°58' W 075°12'0 0.1
2018-Feb-15 10:00N 38°58' W 075°12'0 0.0
2018-Feb-15 09:27N 38°58' W 075°12'0 0.4
2018-Feb-15 09:00N 38°58' W 075°12'0 0.1
2018-Feb-15 08:30N 38°58' W 075°12'0 0.0
2018-Feb-15 07:57N 38°58' W 075°12'0 0.0
2018-Feb-15 07:27N 38°58' W 075°12'0 0.0
2018-Feb-15 06:57N 38°58' W 075°12'0 0.0
2018-Feb-15 06:15N 38°58' W 075°12'0 0.0
2018-Feb-15 05:57N 38°58' W 075°12'0 0.0
2018-Feb-15 05:24N 38°58' W 075°12'0 0.0
2018-Feb-15 05:00N 38°58' W 075°12'0 0.0
2018-Feb-15 04:30N 38°58' W 075°12'0 0.0
2018-Feb-15 03:54N 38°58' W 075°12'0 0.1
2018-Feb-15 03:30N 38°58' W 075°12'0 0.3
2018-Feb-15 02:54N 38°58' W 075°12'0 0.1
2018-Feb-15 01:45N 38°58' W 075°12'0 0.0
2018-Feb-15 01:30N 38°58' W 075°12'0 0.0
2018-Feb-15 01:00N 38°58' W 075°12'0 0.0
2018-Feb-15 00:30N 38°58' W 075°12'0 0.0
2018-Feb-14 23:57N 38°58' W 075°12'0 0.0
2018-Feb-14 23:27N 38°58' W 075°12'0 0.1
2018-Feb-14 23:00N 38°58' W 075°12'711.1
2018-Feb-14 22:22N 38°53' W 075°06'7 9.8
2018-Feb-14 21:37N 38°47' W 074°60'2 9.7
2018-Feb-14 21:25N 38°47' W 074°57'4 9.6
2018-Feb-14 20:59N 38°48' W 074°52'56 9.8
2018-Feb-14 15:16N 39°29' W 074°02'411.5
2018-Feb-14 14:56N 39°32' W 073°60'611.5
2018-Feb-14 14:27N 39°37' W 073°56'711.7
2018-Feb-14 13:49N 39°43' W 073°51'511.0
2018-Feb-14 13:19N 39°48' W 073°50'3010.9
2018-Feb-14 10:34N 40°19' W 073°49'1 9.8
2018-Feb-14 10:30N 40°19' W 073°49'5 9.6
2018-Feb-14 10:00N 40°24' W 073°49'5 9.3
2018-Feb-14 09:31N 40°28' W 073°53'5 9.4
2018-Feb-14 09:00N 40°30' W 073°58'5 9.6
2018-Feb-14 08:30N 40°34' W 074°02'510.6
2018-Feb-14 08:01N 40°39' W 074°05'1 2.2
2018-Feb-14 07:30N 40°39' W 074°06'0 0.0
2018-Feb-14 06:58N 40°39' W 074°06'0 0.0
2018-Feb-14 06:28N 40°39' W 074°06'0 0.0
2018-Feb-14 05:58N 40°39' W 074°06'0 0.0
2018-Feb-14 05:28N 40°39' W 074°06'0 0.0
2018-Feb-14 04:58N 40°39' W 074°06'0 0.0
2018-Feb-14 04:25N 40°39' W 074°06'0 0.0
2018-Feb-14 03:55N 40°39' W 074°06'0 0.0
2018-Feb-14 03:28N 40°39' W 074°06'0 0.0
2018-Feb-14 02:58N 40°39' W 074°06'0 0.0
2018-Feb-14 02:28N 40°39' W 074°06'0 0.0
2018-Feb-14 01:58N 40°39' W 074°06'0 0.0
2018-Feb-14 01:28N 40°39' W 074°06'0 0.0
2018-Feb-14 00:58N 40°39' W 074°06'0 0.0
2018-Feb-14 00:28N 40°39' W 074°06'0 0.0
2018-Feb-13 23:58N 40°39' W 074°06'0 0.0
2018-Feb-13 23:28N 40°39' W 074°06'0 0.0
2018-Feb-13 22:58N 40°39' W 074°06'0 0.0
2018-Feb-13 22:28N 40°39' W 074°06'0 0.0
2018-Feb-13 21:58N 40°39' W 074°06'0 0.0
2018-Feb-13 21:28N 40°39' W 074°06'0 0.0
2018-Feb-13 20:58N 40°39' W 074°06'0 0.0
2018-Feb-13 20:28N 40°39' W 074°06'0 0.0
2018-Feb-13 19:58N 40°39' W 074°06'0 0.0
2018-Feb-13 19:28N 40°39' W 074°06'0 0.0
2018-Feb-13 18:58N 40°39' W 074°06'0 0.0
2018-Feb-13 18:28N 40°39' W 074°06'0 0.0
2018-Feb-13 17:58N 40°39' W 074°06'0 0.0
2018-Feb-13 17:28N 40°39' W 074°06'0 0.0
2018-Feb-13 16:58N 40°39' W 074°06'0 0.0
2018-Feb-13 16:28N 40°39' W 074°06'0 0.0
2018-Feb-13 15:58N 40°39' W 074°06'0 0.0
2018-Feb-13 15:28N 40°39' W 074°06'0 0.0
2018-Feb-13 14:58N 40°39' W 074°06'0 0.0
2018-Feb-13 14:28N 40°39' W 074°06'0 0.0
2018-Feb-13 13:58N 40°39' W 074°06'0 1.0
2018-Feb-13 13:30N 40°39' W 074°05'4 8.0
2018-Feb-13 13:00N 40°36' W 074°02'510.7
2018-Feb-13 12:30N 40°31' W 073°59'5 9.4
2018-Feb-13 12:00N 40°28' W 073°54'4 8.6
2018-Feb-13 11:29N 40°25' W 073°50'2 4.4
2018-Feb-13 11:00N 40°23' W 073°48'2 4.5
2018-Feb-13 10:30N 40°21' W 073°47'  
2018-Feb-10 06:53N 27°06' W 079°55'514.1
2018-Feb-10 06:30N 27°01' W 079°55'714.0
2018-Feb-10 06:00N 26°54' W 079°54'2114.0
2018-Feb-10 04:32N 26°33' W 079°54'214.3
2018-Feb-10 04:22N 26°31' W 079°54'514.5
2018-Feb-10 04:00N 26°26' W 079°54'815.0
2018-Feb-10 03:30N 26°18' W 079°55'815.0
2018-Feb-10 03:00N 26°11' W 079°56'715.0
2018-Feb-10 02:30N 26°03' W 079°57'815.0
2018-Feb-10 02:00N 25°56' W 079°57'815.1
2018-Feb-10 01:30N 25°48' W 079°57'815.1
2018-Feb-10 01:00N 25°41' W 079°57'714.9
2018-Feb-10 00:30N 25°33' W 079°57'714.9
2018-Feb-10 00:00N 25°26' W 079°59'814.8
2018-Feb-09 23:30N 25°19' W 080°02'  
2018-Feb-06 20:26N 29°21' W 094°45'3 6.6
2018-Feb-06 19:58N 29°19' W 094°48'1 2.5
2018-Feb-06 19:28N 29°19' W 094°49'0 0.0
2018-Feb-06 19:00N 29°19' W 094°49'0 0.0
2018-Feb-06 18:20N 29°19' W 094°49'0 0.0
2018-Feb-06 17:56N 29°19' W 094°49'0 0.0
2018-Feb-06 17:26N 29°19' W 094°49'5 0.3
2018-Feb-05 20:03N 29°24' W 094°49'111.0
2018-Feb-05 19:59N 29°25' W 094°49'510.7
2018-Feb-05 19:30N 29°29' W 094°52'1510.2
2018-Feb-05 18:00N 29°42' W 095°01'  

Dump ship's entire track history